Time;durP1;ratioP1;P1;durP2;ratioP2;P2;SDS_P1;SDS_P2;PMS_P1;PMS_P2;Temp;Humidity;BMP_temperature;BMP_pressure;BME280_temperature;BME280_humidity;BME280_pressure;Samples;Min_cycle;Max_cycle;Signal;HPM_P1;HPM_P2
2023/12/18 00:01:47;;;;;;;;;44.25;39.25;;;;;;;;5074271;28;11612;-83
2023/12/18 00:04:15;;;;;;;;;43.75;38.75;;;;;;;;5086767;28;11568;-84
2023/12/18 00:06:43;;;;;;;;;52.25;44.00;;;;;;;;5071305;28;11674;-83
2023/12/18 00:09:13;;;;;;;;;52.00;42.00;;;;;;;;5080420;28;11563;-84
2023/12/18 00:11:40;;;;;;;;;49.00;42.75;;;;;;;;5069992;28;12416;-84
2023/12/18 00:14:10;;;;;;;;;51.75;41.75;;;;;;;;5069346;28;11556;-86
2023/12/18 00:16:37;;;;;;;;;45.75;40.00;;;;;;;;5066164;28;11548;-84
2023/12/18 00:19:06;;;;;;;;;48.25;41.50;;;;;;;;5074110;28;11541;-84
2023/12/18 00:21:34;;;;;;;;;42.50;38.75;;;;;;;;5070082;28;11708;-84
2023/12/18 00:24:01;;;;;;;;;50.75;39.25;;;;;;;;5070415;28;11553;-83
2023/12/18 00:26:29;;;;;;;;;45.75;41.75;;;;;;;;5055953;28;11688;-83
2023/12/18 00:28:56;;;;;;;;;38.75;37.50;;;;;;;;5071664;28;11537;-83
2023/12/18 00:31:25;;;;;;;;;41.00;36.00;;;;;;;;5061199;28;11485;-82
2023/12/18 00:33:52;;;;;;;;;48.50;43.25;;;;;;;;5054163;28;11575;-82
2023/12/18 00:36:19;;;;;;;;;44.25;39.25;;;;;;;;5071219;28;11524;-82
2023/12/18 00:38:46;;;;;;;;;60.25;45.00;;;;;;;;5071966;28;11552;-83
2023/12/18 00:41:13;;;;;;;;;48.50;41.50;;;;;;;;5072449;28;11663;-82
2023/12/18 00:43:41;;;;;;;;;49.75;43.25;;;;;;;;5071740;28;11920;-82
2023/12/18 00:46:08;;;;;;;;;46.75;39.25;;;;;;;;5070876;28;11550;-82
2023/12/18 00:48:37;;;;;;;;;42.25;38.25;;;;;;;;5071312;28;11544;-83
2023/12/18 00:51:05;;;;;;;;;45.50;40.25;;;;;;;;5069793;28;11700;-84
2023/12/18 00:53:32;;;;;;;;;57.75;44.25;;;;;;;;5071272;28;11526;-83
2023/12/18 00:55:59;;;;;;;;;44.25;39.50;;;;;;;;5072306;28;11663;-83
2023/12/18 00:58:26;;;;;;;;;46.50;38.75;;;;;;;;5071164;28;11528;-83
2023/12/18 01:00:57;;;;;;;;;55.00;44.25;;;;;;;;5069969;28;11521;-81
2023/12/18 01:03:30;;;;;;;;;42.25;36.25;;;;;;;;5071726;28;11718;-84
2023/12/18 01:05:58;;;;;;;;;53.75;41.25;;;;;;;;5070007;28;11557;-82
2023/12/18 01:08:25;;;;;;;;;37.50;30.25;;;;;;;;5070918;28;11568;-82
2023/12/18 01:10:53;;;;;;;;;51.75;42.00;;;;;;;;5071361;28;11522;-83
2023/12/18 01:13:20;;;;;;;;;45.50;38.25;;;;;;;;5069534;28;11719;-83
2023/12/18 01:15:47;;;;;;;;;54.25;43.75;;;;;;;;5060485;28;11547;-84
2023/12/18 01:18:14;;;;;;;;;41.00;36.25;;;;;;;;5070069;28;11552;-83
2023/12/18 01:20:41;;;;;;;;;43.50;36.25;;;;;;;;5070493;28;11732;-82
2023/12/18 01:23:10;;;;;;;;;41.75;35.25;;;;;;;;5070270;28;11564;-83
2023/12/18 01:25:38;;;;;;;;;47.00;37.25;;;;;;;;5069401;28;11596;-83
2023/12/18 01:28:05;;;;;;;;;42.00;37.00;;;;;;;;5069180;28;11621;-83
2023/12/18 01:30:33;;;;;;;;;39.25;37.75;;;;;;;;5070631;28;11576;-84
2023/12/18 01:33:00;;;;;;;;;40.75;37.00;;;;;;;;5068039;28;11547;-83
2023/12/18 01:35:27;;;;;;;;;50.25;37.25;;;;;;;;5060205;28;12449;-83
2023/12/18 01:37:54;;;;;;;;;43.00;40.00;;;;;;;;5070622;28;11543;-83
2023/12/18 01:40:23;;;;;;;;;49.50;37.75;;;;;;;;5070501;28;11566;-83
2023/12/18 01:42:50;;;;;;;;;48.75;40.50;;;;;;;;5071126;28;11565;-83
2023/12/18 01:45:18;;;;;;;;;39.75;35.25;;;;;;;;5074311;28;11557;-83
2023/12/18 01:47:45;;;;;;;;;29.00;28.25;;;;;;;;5075746;28;12472;-83
2023/12/18 01:50:13;;;;;;;;;40.50;39.00;;;;;;;;5069269;28;11667;-84
2023/12/18 01:52:40;;;;;;;;;36.50;31.25;;;;;;;;5078276;28;11549;-83
2023/12/18 01:55:08;;;;;;;;;32.50;29.00;;;;;;;;5075661;28;11690;-84
2023/12/18 01:57:37;;;;;;;;;40.50;38.00;;;;;;;;5075324;28;11582;-83
2023/12/18 02:00:05;;;;;;;;;43.50;39.75;;;;;;;;5069968;28;11550;-84
2023/12/18 02:02:33;;;;;;;;;35.25;33.25;;;;;;;;5070106;28;11673;-83
2023/12/18 02:05:01;;;;;;;;;38.75;38.25;;;;;;;;5070019;28;11547;-83
2023/12/18 02:07:32;;;;;;;;;41.00;37.50;;;;;;;;5065014;28;11684;-83
2023/12/18 02:09:59;;;;;;;;;40.75;37.00;;;;;;;;5068903;28;11572;-83
2023/12/18 02:12:26;;;;;;;;;36.75;31.00;;;;;;;;5065516;28;11598;-84
2023/12/18 02:14:57;;;;;;;;;37.00;31.75;;;;;;;;5059709;28;11558;-84
2023/12/18 02:17:24;;;;;;;;;44.75;39.25;;;;;;;;5069184;28;11583;-83
2023/12/18 02:19:51;;;;;;;;;48.00;41.50;;;;;;;;5070100;28;11563;-83
2023/12/18 02:22:18;;;;;;;;;32.75;28.50;;;;;;;;5062029;28;11543;-82
2023/12/18 02:24:48;;;;;;;;;39.25;37.75;;;;;;;;5060955;28;11527;-83
2023/12/18 02:27:15;;;;;;;;;40.25;35.50;;;;;;;;5058703;28;11634;-83
2023/12/18 02:29:43;;;;;;;;;36.50;33.75;;;;;;;;5054234;28;11590;-82
2023/12/18 02:32:10;;;;;;;;;48.00;40.00;;;;;;;;5068680;28;11615;-83
2023/12/18 02:34:37;;;;;;;;;57.50;44.75;;;;;;;;5069611;28;11579;-85
2023/12/18 02:37:04;;;;;;;;;49.50;39.50;;;;;;;;5069431;28;11597;-84
2023/12/18 02:39:32;;;;;;;;;43.00;39.50;;;;;;;;5067398;28;11676;-84
2023/12/18 02:42:00;;;;;;;;;42.00;36.50;;;;;;;;5050571;28;11546;-83
2023/12/18 02:44:30;;;;;;;;;46.00;41.25;;;;;;;;5067655;28;11548;-84
2023/12/18 02:46:58;;;;;;;;;42.75;36.25;;;;;;;;5069116;28;11553;-83
2023/12/18 02:49:25;;;;;;;;;52.25;40.50;;;;;;;;5073766;28;12275;-81
2023/12/18 02:51:52;;;;;;;;;38.75;37.00;;;;;;;;5071621;28;11677;-82
2023/12/18 02:54:19;;;;;;;;;40.25;36.25;;;;;;;;5050736;28;11558;-82
2023/12/18 02:56:47;;;;;;;;;41.75;37.50;;;;;;;;5068815;28;11590;-82
2023/12/18 02:59:15;;;;;;;;;41.50;34.50;;;;;;;;5068007;28;11543;-83
2023/12/18 03:01:43;;;;;;;;;47.50;40.75;;;;;;;;5060948;28;11479;-83
2023/12/18 03:04:10;;;;;;;;;39.00;36.00;;;;;;;;5069132;28;11581;-83
2023/12/18 03:06:37;;;;;;;;;53.25;42.25;;;;;;;;5069390;28;11642;-84
2023/12/18 03:09:04;;;;;;;;;30.75;27.50;;;;;;;;5068959;28;11565;-83
2023/12/18 03:11:32;;;;;;;;;42.00;37.50;;;;;;;;5068605;28;11532;-84
2023/12/18 03:13:59;;;;;;;;;41.75;37.00;;;;;;;;5061855;28;11582;-82
2023/12/18 03:16:27;;;;;;;;;47.25;36.00;;;;;;;;5063181;28;11563;-83
2023/12/18 03:18:55;;;;;;;;;36.25;32.00;;;;;;;;5059727;28;11543;-81
2023/12/18 03:21:22;;;;;;;;;41.00;38.50;;;;;;;;5060525;28;11530;-82
2023/12/18 03:23:49;;;;;;;;;44.00;36.75;;;;;;;;5060879;28;12849;-82
2023/12/18 03:26:16;;;;;;;;;46.25;41.50;;;;;;;;5068619;28;11666;-83
2023/12/18 03:28:44;;;;;;;;;38.75;34.50;;;;;;;;5068092;28;11541;-82
2023/12/18 03:31:11;;;;;;;;;33.00;31.75;;;;;;;;5069047;28;11483;-82
2023/12/18 03:33:40;;;;;;;;;30.00;30.00;;;;;;;;5070854;28;11626;-81
2023/12/18 03:36:08;;;;;;;;;38.50;36.00;;;;;;;;5069822;28;11562;-81
2023/12/18 03:38:35;;;;;;;;;48.25;39.25;;;;;;;;5062499;28;11698;-82
2023/12/18 03:41:02;;;;;;;;;41.25;35.75;;;;;;;;5059281;28;11564;-82
2023/12/18 03:43:30;;;;;;;;;48.75;40.75;;;;;;;;5064458;28;11606;-82
2023/12/18 03:45:57;;;;;;;;;44.75;38.00;;;;;;;;5063950;28;11531;-83
2023/12/18 03:48:27;;;;;;;;;47.25;40.00;;;;;;;;5068445;28;11616;-83
2023/12/18 03:50:57;;;;;;;;;43.25;37.50;;;;;;;;5070610;28;11806;-83
2023/12/18 03:53:26;;;;;;;;;49.00;40.00;;;;;;;;5074817;28;11668;-82
2023/12/18 03:55:54;;;;;;;;;41.50;38.25;;;;;;;;5076274;28;11554;-82
2023/12/18 03:58:21;;;;;;;;;34.00;31.25;;;;;;;;5075796;28;11632;-83
2023/12/18 04:00:48;;;;;;;;;46.00;38.25;;;;;;;;5071564;28;11474;-82
2023/12/18 04:03:15;;;;;;;;;31.50;31.50;;;;;;;;5071347;28;11932;-83
2023/12/18 04:05:43;;;;;;;;;33.00;30.25;;;;;;;;5069327;28;11546;-83
2023/12/18 04:08:11;;;;;;;;;43.00;38.25;;;;;;;;5068890;28;11538;-83
2023/12/18 04:10:39;;;;;;;;;28.25;24.50;;;;;;;;5069894;28;11648;-84
2023/12/18 04:13:06;;;;;;;;;43.25;34.50;;;;;;;;5070509;28;11526;-83
2023/12/18 04:15:33;;;;;;;;;36.75;33.75;;;;;;;;5069259;28;11642;-84
2023/12/18 04:18:00;;;;;;;;;38.00;34.00;;;;;;;;5071172;28;11578;-83
2023/12/18 04:20:30;;;;;;;;;30.00;30.00;;;;;;;;5071531;28;11683;-83
2023/12/18 04:22:57;;;;;;;;;42.75;36.25;;;;;;;;5068199;28;11535;-83
2023/12/18 04:25:25;;;;;;;;;49.50;38.00;;;;;;;;5071357;28;11687;-83
2023/12/18 04:27:53;;;;;;;;;38.50;37.00;;;;;;;;5069839;28;11660;-83
2023/12/18 04:30:20;;;;;;;;;48.00;40.75;;;;;;;;5071197;28;11570;-83
2023/12/18 04:32:48;;;;;;;;;36.25;34.50;;;;;;;;5065564;28;11588;-82
2023/12/18 04:35:15;;;;;;;;;37.50;31.25;;;;;;;;5064485;28;11574;-83
2023/12/18 04:37:42;;;;;;;;;35.75;31.25;;;;;;;;5070796;28;11610;-84
2023/12/18 04:40:11;;;;;;;;;39.75;33.75;;;;;;;;5059866;28;11707;-82
2023/12/18 04:42:39;;;;;;;;;31.75;29.00;;;;;;;;5070344;28;12377;-83
2023/12/18 04:45:08;;;;;;;;;44.50;34.25;;;;;;;;5070785;28;11738;-82
2023/12/18 04:47:37;;;;;;;;;37.75;30.00;;;;;;;;5071960;28;11612;-83
2023/12/18 04:50:06;;;;;;;;;45.25;34.50;;;;;;;;5071726;28;11563;-81
2023/12/18 04:52:33;;;;;;;;;36.00;32.25;;;;;;;;5066407;28;11668;-82
2023/12/18 04:55:00;;;;;;;;;30.00;29.00;;;;;;;;5070868;28;11675;-82
2023/12/18 04:57:28;;;;;;;;;41.50;38.25;;;;;;;;5071134;28;11597;-84
2023/12/18 05:00:04;;;;;;;;;36.50;33.00;;;;;;;;5071559;28;11557;-82
2023/12/18 05:02:31;;;;;;;;;41.50;36.25;;;;;;;;5067670;28;12392;-83
2023/12/18 05:04:59;;;;;;;;;37.50;32.00;;;;;;;;5071637;28;11546;-85
2023/12/18 05:07:27;;;;;;;;;33.00;31.50;;;;;;;;5069092;28;11540;-81
2023/12/18 05:09:54;;;;;;;;;38.75;30.50;;;;;;;;5069038;28;11632;-80
2023/12/18 05:12:21;;;;;;;;;35.75;33.75;;;;;;;;5069841;28;11512;-81
2023/12/18 05:14:49;;;;;;;;;38.50;33.25;;;;;;;;5069033;28;11755;-81
2023/12/18 05:17:17;;;;;;;;;36.75;28.00;;;;;;;;5064360;28;11532;-82
2023/12/18 05:19:44;;;;;;;;;43.25;36.25;;;;;;;;5071094;28;11564;-83
2023/12/18 05:22:12;;;;;;;;;36.25;35.00;;;;;;;;5065946;28;11557;-83
2023/12/18 05:24:39;;;;;;;;;38.50;31.25;;;;;;;;5073147;28;11667;-82
2023/12/18 05:27:06;;;;;;;;;50.00;36.50;;;;;;;;5066281;28;11553;-81
2023/12/18 05:29:34;;;;;;;;;31.25;28.25;;;;;;;;5064800;28;11595;-81
2023/12/18 05:32:01;;;;;;;;;32.25;29.25;;;;;;;;5061412;28;11529;-83
2023/12/18 05:34:30;;;;;;;;;35.00;31.00;;;;;;;;5075491;28;11701;-83
2023/12/18 05:36:57;;;;;;;;;34.50;32.00;;;;;;;;5071813;28;11547;-83
2023/12/18 05:39:25;;;;;;;;;38.00;35.75;;;;;;;;5091037;28;11540;-84
2023/12/18 05:41:52;;;;;;;;;30.50;30.50;;;;;;;;5076833;28;11569;-83
2023/12/18 05:44:19;;;;;;;;;38.75;32.50;;;;;;;;5073077;28;11589;-82
2023/12/18 05:46:47;;;;;;;;;28.75;23.00;;;;;;;;5069893;28;12115;-83
2023/12/18 05:49:14;;;;;;;;;28.25;23.00;;;;;;;;5072781;28;11536;-83
2023/12/18 05:51:43;;;;;;;;;28.25;22.75;;;;;;;;5070525;28;12342;-83
2023/12/18 05:54:10;;;;;;;;;32.25;26.50;;;;;;;;5051488;28;11536;-82
2023/12/18 05:56:37;;;;;;;;;26.50;21.25;;;;;;;;5063824;28;11555;-82
2023/12/18 05:59:05;;;;;;;;;27.00;24.50;;;;;;;;5069567;28;11532;-82
2023/12/18 06:01:32;;;;;;;;;27.75;25.50;;;;;;;;5068624;28;11575;-83
2023/12/18 06:03:59;;;;;;;;;23.00;23.00;;;;;;;;5053965;28;11566;-82
2023/12/18 06:06:26;;;;;;;;;34.75;30.50;;;;;;;;5065671;28;11549;-81
2023/12/18 06:08:55;;;;;;;;;34.75;29.50;;;;;;;;5069439;28;11643;-81
2023/12/18 06:11:23;;;;;;;;;28.75;27.00;;;;;;;;5069363;28;12302;-82
2023/12/18 06:13:51;;;;;;;;;33.50;29.50;;;;;;;;5069052;28;11540;-80
2023/12/18 06:16:18;;;;;;;;;32.00;26.50;;;;;;;;5067731;28;11559;-80
2023/12/18 06:18:45;;;;;;;;;24.75;20.75;;;;;;;;5067867;28;11587;-79
2023/12/18 06:21:12;;;;;;;;;28.25;26.00;;;;;;;;5065568;28;11533;-80
2023/12/18 06:23:42;;;;;;;;;29.00;25.50;;;;;;;;5066254;28;11672;-78
2023/12/18 06:26:11;;;;;;;;;36.50;23.75;;;;;;;;5064837;28;11581;-77
2023/12/18 06:28:38;;;;;;;;;25.75;20.50;;;;;;;;5067332;28;11557;-79
2023/12/18 06:31:05;;;;;;;;;30.75;27.25;;;;;;;;5067295;28;11486;-83
2023/12/18 06:33:32;;;;;;;;;28.50;28.50;;;;;;;;5055991;28;11565;-79
2023/12/18 06:36:02;;;;;;;;;33.25;28.75;;;;;;;;5067011;28;11640;-79
2023/12/18 06:38:29;;;;;;;;;29.75;26.75;;;;;;;;5067421;28;11552;-79
2023/12/18 06:40:57;;;;;;;;;26.50;23.50;;;;;;;;5067821;28;11517;-77
2023/12/18 06:43:25;;;;;;;;;24.75;22.50;;;;;;;;5068602;28;11654;-78
2023/12/18 06:45:52;;;;;;;;;25.00;24.00;;;;;;;;5066278;28;11728;-78
2023/12/18 06:48:19;;;;;;;;;31.50;27.25;;;;;;;;5067826;28;11533;-79
2023/12/18 06:50:47;;;;;;;;;25.50;25.50;;;;;;;;5067987;28;11575;-77
2023/12/18 06:53:14;;;;;;;;;32.25;27.25;;;;;;;;5067442;28;11675;-77
2023/12/18 06:55:41;;;;;;;;;36.50;32.25;;;;;;;;5067425;28;11660;-79
2023/12/18 06:58:09;;;;;;;;;34.25;28.75;;;;;;;;5067814;28;11592;-76
2023/12/18 07:00:37;;;;;;;;;20.25;20.25;;;;;;;;5067939;28;11466;-79
2023/12/18 07:03:06;;;;;;;;;34.50;29.00;;;;;;;;5065698;28;11560;-79
2023/12/18 07:05:33;;;;;;;;;29.75;25.75;;;;;;;;5067655;28;11553;-79
2023/12/18 07:08:01;;;;;;;;;29.75;26.25;;;;;;;;5067472;28;11690;-78
2023/12/18 07:10:28;;;;;;;;;20.75;20.75;;;;;;;;5068635;28;11520;-79
2023/12/18 07:12:55;;;;;;;;;27.50;25.50;;;;;;;;5069658;28;11546;-78
2023/12/18 07:15:24;;;;;;;;;34.75;30.00;;;;;;;;5068926;28;11610;-79
2023/12/18 07:17:53;;;;;;;;;33.75;29.50;;;;;;;;5067102;28;11542;-77
2023/12/18 07:20:20;;;;;;;;;30.25;23.25;;;;;;;;5061873;28;11646;-78
2023/12/18 07:22:47;;;;;;;;;27.25;20.25;;;;;;;;5059939;28;11509;-77
2023/12/18 07:25:15;;;;;;;;;29.50;25.50;;;;;;;;5061035;28;11541;-79
2023/12/18 07:27:44;;;;;;;;;30.00;28.50;;;;;;;;5070124;28;11682;-79
2023/12/18 07:30:12;;;;;;;;;18.25;16.25;;;;;;;;5067687;28;11532;-78
2023/12/18 07:32:40;;;;;;;;;21.25;19.00;;;;;;;;5063842;28;11662;-79
2023/12/18 07:35:09;;;;;;;;;29.50;28.25;;;;;;;;5061613;28;11547;-76
2023/12/18 07:37:36;;;;;;;;;28.75;24.50;;;;;;;;5068517;28;11598;-79
2023/12/18 07:40:03;;;;;;;;;36.75;28.00;;;;;;;;5068081;28;11584;-77
2023/12/18 07:42:34;;;;;;;;;32.75;26.25;;;;;;;;5066647;28;12396;-74
2023/12/18 07:45:01;;;;;;;;;22.25;22.25;;;;;;;;5067502;28;11551;-73
2023/12/18 07:47:28;;;;;;;;;31.75;27.25;;;;;;;;5068511;28;11558;-79
2023/12/18 07:49:55;;;;;;;;;24.75;24.00;;;;;;;;5068299;28;11566;-80
2023/12/18 07:52:24;;;;;;;;;21.50;18.25;;;;;;;;5067178;28;11573;-82
2023/12/18 07:54:51;;;;;;;;;29.25;25.75;;;;;;;;5067036;28;11585;-77
2023/12/18 07:57:18;;;;;;;;;18.25;18.25;;;;;;;;5066888;28;11519;-74
2023/12/18 07:59:45;;;;;;;;;28.00;25.75;;;;;;;;5066315;28;11670;-79
2023/12/18 08:02:12;;;;;;;;;30.00;27.25;;;;;;;;5066084;28;11516;-82
2023/12/18 08:04:41;;;;;;;;;27.50;27.00;;;;;;;;5065285;28;11525;-78
2023/12/18 08:07:11;;;;;;;;;30.50;28.00;;;;;;;;5067503;28;11553;-83
2023/12/18 08:09:41;;;;;;;;;22.00;22.00;;;;;;;;5065366;28;11538;-79
2023/12/18 08:12:12;;;;;;;;;29.00;28.00;;;;;;;;5064556;28;11588;-73
2023/12/18 08:14:39;;;;;;;;;27.00;24.25;;;;;;;;5067259;28;11668;-79
2023/12/18 08:17:15;;;;;;;;;30.00;26.00;;;;;;;;5067109;28;11554;-77
2023/12/18 08:19:52;;;;;;;;;25.25;24.75;;;;;;;;5067531;28;11527;-81
2023/12/18 08:22:19;;;;;;;;;30.75;29.00;;;;;;;;5067805;28;11667;-76
2023/12/18 08:24:47;;;;;;;;;26.50;22.25;;;;;;;;5070481;28;11554;-75
2023/12/18 08:27:15;;;;;;;;;24.75;22.00;;;;;;;;5067172;28;11545;-78
2023/12/18 08:29:46;;;;;;;;;33.50;32.75;;;;;;;;5068033;28;11544;-79
2023/12/18 08:32:16;;;;;;;;;33.25;30.75;;;;;;;;5065644;28;11497;-79
2023/12/18 08:34:43;;;;;;;;;28.75;26.00;;;;;;;;5056874;28;11646;-81
2023/12/18 08:37:11;;;;;;;;;29.00;26.25;;;;;;;;5069267;28;11544;-79
2023/12/18 08:39:40;;;;;;;;;33.00;29.00;;;;;;;;5070894;28;11540;-79
2023/12/18 08:42:09;;;;;;;;;25.75;21.25;;;;;;;;5071736;28;11522;-76
2023/12/18 08:44:42;;;;;;;;;24.00;24.00;;;;;;;;5070627;28;11524;-81
2023/12/18 08:47:09;;;;;;;;;43.25;32.75;;;;;;;;5070102;28;11548;-82
2023/12/18 08:49:36;;;;;;;;;33.00;31.00;;;;;;;;5071111;28;11614;-81
2023/12/18 08:52:04;;;;;;;;;29.75;22.25;;;;;;;;5070145;28;12350;-79
2023/12/18 08:54:31;;;;;;;;;26.25;23.50;;;;;;;;5071263;28;12371;-76
2023/12/18 08:56:59;;;;;;;;;25.75;24.00;;;;;;;;5070416;28;11563;-79
2023/12/18 08:59:30;;;;;;;;;29.00;26.50;;;;;;;;5072240;28;11536;-74
2023/12/18 09:01:58;;;;;;;;;26.25;26.25;;;;;;;;5073041;28;11470;-80
2023/12/18 09:04:25;;;;;;;;;26.00;21.50;;;;;;;;5073989;28;11543;-78
2023/12/18 09:06:53;;;;;;;;;32.50;28.75;;;;;;;;5074811;28;11561;-81
2023/12/18 09:09:20;;;;;;;;;25.75;21.75;;;;;;;;5068073;28;11541;-82
2023/12/18 09:11:47;;;;;;;;;32.25;30.50;;;;;;;;5074473;28;11615;-82
2023/12/18 09:14:14;;;;;;;;;34.25;29.50;;;;;;;;5068736;28;11580;-80
2023/12/18 09:16:43;;;;;;;;;30.00;22.50;;;;;;;;5072856;28;11555;-78
2023/12/18 09:19:10;;;;;;;;;33.50;29.75;;;;;;;;5070532;28;11530;-81
2023/12/18 09:21:37;;;;;;;;;25.50;22.75;;;;;;;;5067040;28;12406;-81
2023/12/18 09:24:05;;;;;;;;;35.00;26.25;;;;;;;;5066310;28;12349;-81
2023/12/18 09:26:32;;;;;;;;;25.75;25.50;;;;;;;;5070830;28;11560;-75
2023/12/18 09:29:00;;;;;;;;;35.75;33.75;;;;;;;;5067468;28;11526;-76
2023/12/18 09:31:27;;;;;;;;;28.25;28.25;;;;;;;;5068626;28;12155;-79
2023/12/18 09:33:56;;;;;;;;;38.75;35.50;;;;;;;;5056364;28;11641;-80
2023/12/18 09:36:23;;;;;;;;;26.50;14.50;;;;;;;;5069569;28;11556;-79
2023/12/18 09:38:50;;;;;;;;;35.75;23.00;;;;;;;;5068867;28;11668;-77
2023/12/18 09:41:22;;;;;;;;;34.75;29.25;;;;;;;;5069042;28;12360;-76
2023/12/18 09:43:52;;;;;;;;;28.00;27.00;;;;;;;;5068687;28;12416;-84
2023/12/18 09:46:20;;;;;;;;;38.00;33.75;;;;;;;;5069441;28;12384;-77
2023/12/18 09:48:50;;;;;;;;;26.00;26.00;;;;;;;;5068399;28;12447;-78
2023/12/18 09:51:22;;;;;;;;;26.00;25.25;;;;;;;;5069553;28;11579;-81
2023/12/18 09:53:51;;;;;;;;;38.00;35.50;;;;;;;;5068777;28;11537;-82
2023/12/18 09:56:20;;;;;;;;;28.25;27.75;;;;;;;;5067031;28;11685;-75
2023/12/18 09:58:48;;;;;;;;;38.25;27.75;;;;;;;;5068568;28;11522;-74
2023/12/18 10:01:15;;;;;;;;;36.00;28.25;;;;;;;;5068696;28;11484;-79
2023/12/18 10:03:43;;;;;;;;;28.00;26.25;;;;;;;;5067639;28;11534;-78
2023/12/18 10:06:10;;;;;;;;;28.50;25.25;;;;;;;;5068462;28;11558;-77
2023/12/18 10:08:41;;;;;;;;;32.00;27.50;;;;;;;;5068969;28;11542;-79
2023/12/18 10:11:24;;;;;;;;;35.00;32.00;;;;;;;;5068321;28;11571;-81
2023/12/18 10:13:51;;;;;;;;;25.25;22.50;;;;;;;;5060313;28;11533;-81
2023/12/18 10:16:19;;;;;;;;;33.25;28.75;;;;;;;;5068439;28;11538;-81
2023/12/18 10:18:46;;;;;;;;;38.25;30.00;;;;;;;;5066264;28;11639;-79
2023/12/18 10:21:13;;;;;;;;;25.75;24.50;;;;;;;;5067946;28;11546;-81
2023/12/18 10:23:42;;;;;;;;;32.25;28.00;;;;;;;;5067766;28;11571;-79
2023/12/18 10:26:09;;;;;;;;;33.00;28.75;;;;;;;;5065400;28;11569;-80
2023/12/18 10:28:36;;;;;;;;;32.00;27.00;;;;;;;;5068902;28;11555;-80
2023/12/18 10:31:08;;;;;;;;;34.50;32.00;;;;;;;;5064945;28;11522;-81
2023/12/18 10:33:37;;;;;;;;;34.50;31.50;;;;;;;;5056587;28;11548;-80
2023/12/18 10:36:05;;;;;;;;;29.75;27.75;;;;;;;;5068256;28;11823;-81
2023/12/18 10:38:36;;;;;;;;;45.25;37.00;;;;;;;;5067863;28;11534;-74
2023/12/18 10:41:05;;;;;;;;;33.25;32.00;;;;;;;;5068449;28;11602;-76
2023/12/18 10:43:36;;;;;;;;;31.75;31.00;;;;;;;;5068498;28;12353;-81
2023/12/18 10:46:05;;;;;;;;;33.00;31.00;;;;;;;;5068926;28;11557;-79
2023/12/18 10:48:33;;;;;;;;;42.00;32.75;;;;;;;;5052535;28;11558;-77
2023/12/18 10:51:03;;;;;;;;;24.25;24.25;;;;;;;;5071208;28;11677;-81
2023/12/18 10:53:33;;;;;;;;;38.50;35.25;;;;;;;;5072141;28;11518;-81
2023/12/18 10:56:04;;;;;;;;;28.75;24.25;;;;;;;;5068165;28;11545;-76
2023/12/18 10:58:35;;;;;;;;;37.00;32.50;;;;;;;;5066827;28;11540;-81
2023/12/18 11:01:04;;;;;;;;;36.50;29.50;;;;;;;;5067990;28;11485;-82
2023/12/18 11:03:31;;;;;;;;;35.00;31.25;;;;;;;;5064413;28;11538;-81
2023/12/18 11:06:00;;;;;;;;;33.75;31.25;;;;;;;;5059708;28;11547;-77
2023/12/18 11:08:28;;;;;;;;;22.50;19.50;;;;;;;;5068287;28;11580;-81
2023/12/18 11:10:58;;;;;;;;;23.25;21.75;;;;;;;;5068505;28;11587;-78
2023/12/18 11:13:27;;;;;;;;;26.25;22.75;;;;;;;;5069044;28;11608;-80
2023/12/18 11:16:05;;;;;;;;;29.75;28.00;;;;;;;;5064081;28;11583;-82
2023/12/18 11:18:52;;;;;;;;;31.00;31.00;;;;;;;;5071171;28;12316;-80
2023/12/18 11:21:20;;;;;;;;;34.50;28.00;;;;;;;;5070348;28;11678;-77
2023/12/18 11:23:50;;;;;;;;;33.00;28.25;;;;;;;;5068727;28;11632;-77
2023/12/18 11:26:17;;;;;;;;;27.75;25.75;;;;;;;;5064251;28;11612;-80
2023/12/18 11:28:48;;;;;;;;;33.50;31.75;;;;;;;;5070616;28;11713;-76
2023/12/18 11:31:20;;;;;;;;;36.50;28.75;;;;;;;;5064992;28;11519;-75
2023/12/18 11:34:01;;;;;;;;;22.75;19.00;;;;;;;;5053016;28;12285;-80
2023/12/18 11:36:28;;;;;;;;;29.00;24.25;;;;;;;;5067054;28;11572;-81
2023/12/18 11:38:56;;;;;;;;;31.50;28.50;;;;;;;;5065044;28;11528;-82
2023/12/18 11:41:40;;;;;;;;;30.50;27.25;;;;;;;;5067831;28;11546;-77
2023/12/18 11:44:12;;;;;;;;;39.00;32.00;;;;;;;;5067236;28;11526;-74
2023/12/18 11:46:41;;;;;;;;;33.25;29.25;;;;;;;;5067241;28;11648;-82
2023/12/18 11:49:09;;;;;;;;;28.25;24.25;;;;;;;;5066185;28;11567;-76
2023/12/18 11:51:36;;;;;;;;;32.75;25.75;;;;;;;;5067210;28;11529;-79
2023/12/18 11:54:05;;;;;;;;;28.25;25.25;;;;;;;;5066288;28;11624;-76
2023/12/18 11:56:40;;;;;;;;;29.75;26.75;;;;;;;;5067736;28;11536;-77
2023/12/18 11:59:08;;;;;;;;;30.00;26.75;;;;;;;;5067249;28;11630;-74
2023/12/18 12:01:35;;;;;;;;;34.25;28.50;;;;;;;;5064028;28;11463;-77
2023/12/18 12:04:04;;;;;;;;;37.33;34.33;;;;;;;;5074552;28;11580;-76
2023/12/18 12:06:31;;;;;;;;;33.00;29.33;;;;;;;;5068696;28;11575;-75
2023/12/18 12:08:59;;;;;;;;;42.33;39.00;;;;;;;;5068023;28;11536;-74
2023/12/18 12:11:36;;;;;;;;;30.00;26.00;;;;;;;;5067398;28;11652;-76
2023/12/18 12:14:03;;;;;;;;;40.33;34.67;;;;;;;;5068582;28;11530;-76
2023/12/18 12:16:31;;;;;;;;;27.67;25.00;;;;;;;;5070784;28;12248;-75
2023/12/18 12:18:59;;;;;;;;;43.00;33.00;;;;;;;;5071099;28;11539;-75
2023/12/18 12:21:27;;;;;;;;;27.50;24.50;;;;;;;;5068552;28;11642;-77
2023/12/18 12:23:55;;;;;;;;;31.33;29.33;;;;;;;;5067228;28;11544;-78
2023/12/18 12:26:24;;;;;;;;;29.00;25.67;;;;;;;;5070708;28;12320;-76
2023/12/18 12:28:52;;;;;;;;;25.33;24.00;;;;;;;;5070616;28;11539;-75
2023/12/18 12:31:20;;;;;;;;;25.00;25.00;;;;;;;;5068600;28;11545;-75
2023/12/18 12:33:49;;;;;;;;;28.00;23.67;;;;;;;;5057594;28;11679;-76
2023/12/18 12:36:31;;;;;;;;;30.67;26.67;;;;;;;;5070910;28;11664;-75
2023/12/18 12:39:07;;;;;;;;;36.00;30.00;;;;;;;;5071422;28;11681;-76
2023/12/18 12:41:34;;;;;;;;;35.33;35.33;;;;;;;;5071989;28;11540;-76
2023/12/18 12:44:02;;;;;;;;;30.00;27.00;;;;;;;;5069443;28;11557;-76
2023/12/18 12:46:32;;;;;;;;;32.50;30.50;;;;;;;;5065658;28;11665;-78
2023/12/18 12:49:01;;;;;;;;;36.75;33.75;;;;;;;;5061816;28;11568;-77
2023/12/18 12:51:31;;;;;;;;;32.00;31.33;;;;;;;;5065570;28;11535;-77
2023/12/18 12:54:01;;;;;;;;;32.50;26.25;;;;;;;;5072679;28;11633;-78
2023/12/18 12:56:28;;;;;;;;;31.75;26.00;;;;;;;;5071428;28;11531;-75
2023/12/18 12:58:55;;;;;;;;;31.50;27.25;;;;;;;;5070280;28;11630;-76
2023/12/18 13:01:23;;;;;;;;;28.00;26.75;;;;;;;;5065788;28;11497;-76
2023/12/18 13:03:50;;;;;;;;;29.00;28.00;;;;;;;;5072293;28;11550;-76
2023/12/18 13:06:19;;;;;;;;;31.75;30.00;;;;;;;;5072286;28;11547;-77
2023/12/18 13:08:47;;;;;;;;;26.75;24.00;;;;;;;;5068865;28;11700;-78
2023/12/18 13:11:16;;;;;;;;;28.25;26.25;;;;;;;;5063448;28;11529;-78
2023/12/18 13:13:43;;;;;;;;;22.00;18.50;;;;;;;;5064289;28;11593;-77
2023/12/18 13:16:13;;;;;;;;;32.00;27.50;;;;;;;;5069486;28;11525;-77
2023/12/18 13:18:40;;;;;;;;;28.00;23.75;;;;;;;;5061076;28;12417;-74
2023/12/18 13:21:07;;;;;;;;;28.00;25.00;;;;;;;;5066117;28;11664;-76
2023/12/18 13:23:36;;;;;;;;;35.00;30.25;;;;;;;;5064372;28;11530;-75
2023/12/18 13:26:05;;;;;;;;;36.25;33.50;;;;;;;;5069797;28;11560;-77
2023/12/18 13:28:33;;;;;;;;;29.00;28.00;;;;;;;;5069140;28;11523;-77
2023/12/18 13:31:00;;;;;;;;;32.75;25.25;;;;;;;;5067023;28;12245;-77
2023/12/18 13:33:28;;;;;;;;;34.75;30.75;;;;;;;;5057107;28;11640;-76
2023/12/18 13:35:56;;;;;;;;;29.50;29.25;;;;;;;;5067195;28;11584;-77
2023/12/18 13:38:23;;;;;;;;;29.75;27.00;;;;;;;;5067278;28;12375;-74
2023/12/18 13:40:50;;;;;;;;;23.50;21.50;;;;;;;;5068979;28;11560;-77
2023/12/18 13:43:18;;;;;;;;;23.75;23.75;;;;;;;;5067276;28;11540;-76
2023/12/18 13:45:46;;;;;;;;;34.00;33.25;;;;;;;;5069369;28;11515;-76
2023/12/18 13:48:13;;;;;;;;;29.00;24.00;;;;;;;;5069286;28;11567;-75
2023/12/18 13:50:41;;;;;;;;;25.50;23.25;;;;;;;;5068376;28;11660;-77
2023/12/18 13:53:08;;;;;;;;;29.00;24.00;;;;;;;;5070889;28;11597;-75
2023/12/18 13:55:41;;;;;;;;;26.00;23.50;;;;;;;;5069379;28;11552;-77
2023/12/18 13:58:08;;;;;;;;;35.50;25.25;;;;;;;;5069168;28;11661;-76
2023/12/18 14:00:35;;;;;;;;;29.25;27.50;;;;;;;;5053259;28;11475;-76
2023/12/18 14:03:06;;;;;;;;;27.25;26.00;;;;;;;;5070804;28;11531;-77
2023/12/18 14:05:33;;;;;;;;;23.25;22.00;;;;;;;;5058273;28;11634;-77
2023/12/18 14:08:00;;;;;;;;;29.00;27.50;;;;;;;;5068473;28;11551;-77
2023/12/18 14:10:27;;;;;;;;;32.00;27.25;;;;;;;;5068418;28;11560;-77
2023/12/18 14:12:55;;;;;;;;;24.00;21.25;;;;;;;;5067171;28;11568;-77
2023/12/18 14:15:22;;;;;;;;;27.00;24.75;;;;;;;;5068808;28;11633;-77
2023/12/18 14:17:49;;;;;;;;;26.25;23.75;;;;;;;;5068239;28;11515;-78
2023/12/18 14:20:18;;;;;;;;;26.50;23.50;;;;;;;;5068993;28;11604;-76
2023/12/18 14:22:45;;;;;;;;;35.00;29.00;;;;;;;;5068184;28;11511;-77